Time,TemperatureF,DewpointF,PressureIn,WindDirection,WindDirectionDegrees,WindSpeedMPH,WindSpeedGustMPH,Humidity,HourlyPrecipIn,Conditions,Clouds,dailyrainin,SoftwareType,DateUTC
2013-03-28 00:00:00,48.8,47.4,29.97,South,191,4.0,6.0,95,0.00,,,0.05,Wunderground v.1.15,2013-03-28 07:00:00,
2013-03-28 00:05:00,48.7,47.3,29.97,South,191,4.0,6.0,95,0.00,,,0.00,Wunderground v.1.15,2013-03-28 07:05:00,
2013-03-28 00:11:00,48.6,47.2,29.97,South,191,3.0,3.0,95,0.00,,,0.00,Wunderground v.1.15,2013-03-28 07:11:00,
2013-03-28 00:16:00,48.6,47.2,29.97,South,191,1.0,3.0,95,0.00,,,0.00,Wunderground v.1.15,2013-03-28 07:16:00,
2013-03-28 00:22:00,48.5,47.1,29.97,South,191,2.0,3.0,95,0.00,,,0.00,Wunderground v.1.15,2013-03-28 07:22:00,
2013-03-28 00:28:00,48.5,47.1,29.97,South,191,2.0,3.0,95,0.00,,,0.00,Wunderground v.1.15,2013-03-28 07:28:00,
2013-03-28 00:33:00,48.5,47.1,29.98,South,191,2.0,4.0,95,0.00,,,0.00,Wunderground v.1.15,2013-03-28 07:33:00,
2013-03-28 00:39:00,48.5,47.1,29.97,South,191,2.0,4.0,95,0.00,,,0.00,Wunderground v.1.15,2013-03-28 07:39:00,
2013-03-28 00:44:00,48.4,47.0,29.97,South,191,1.0,2.0,95,0.00,,,0.00,Wunderground v.1.15,2013-03-28 07:44:00,
2013-03-28 00:50:00,48.4,47.0,29.97,South,191,1.0,1.0,95,0.00,,,0.00,Wunderground v.1.15,2013-03-28 07:50:00,
2013-03-28 00:55:00,48.4,47.0,29.97,South,191,0.0,1.0,95,0.00,,,0.00,Wunderground v.1.15,2013-03-28 07:55:00,
2013-03-28 01:01:00,48.3,46.9,29.97,South,191,0.0,9.0,95,0.00,,,0.00,Wunderground v.1.15,2013-03-28 08:01:00,
2013-03-28 01:07:00,48.3,46.9,29.97,South,191,1.0,9.0,95,0.00,,,0.00,Wunderground v.1.15,2013-03-28 08:07:00,
2013-03-28 01:13:00,48.2,46.8,29.97,South,191,1.0,9.0,95,0.00,,,0.00,Wunderground v.1.15,2013-03-28 08:13:00,
2013-03-28 01:18:00,48.2,46.8,29.97,South,191,0.0,9.0,95,0.00,,,0.00,Wunderground v.1.15,2013-03-28 08:18:00,
2013-03-28 01:23:00,48.2,46.8,29.98,South,191,0.0,9.0,95,0.00,,,0.00,Wunderground v.1.15,2013-03-28 08:23:00,
2013-03-28 01:29:00,48.3,47.2,29.98,South,191,0.0,9.0,96,0.00,,,0.00,Wunderground v.1.15,2013-03-28 08:29:00,
2013-03-28 01:34:00,48.3,47.2,29.98,South,191,1.0,9.0,96,0.00,,,0.00,Wunderground v.1.15,2013-03-28 08:34:00,
2013-03-28 01:39:00,48.3,47.2,29.98,South,191,2.0,9.0,96,0.00,,,0.00,Wunderground v.1.15,2013-03-28 08:39:00,
2013-03-28 01:45:00,48.4,47.3,29.98,South,191,2.0,9.0,96,0.00,,,0.00,Wunderground v.1.15,2013-03-28 08:45:00,
2013-03-28 01:50:00,48.4,47.3,29.98,South,191,1.0,1.0,96,0.00,,,0.00,Wunderground v.1.15,2013-03-28 08:50:00,
2013-03-28 01:56:00,48.4,47.3,29.98,South,191,1.0,9.0,96,0.00,,,0.00,Wunderground v.1.15,2013-03-28 08:56:00,
2013-03-28 02:02:00,48.3,46.9,29.98,South,191,0.0,9.0,95,0.00,,,0.00,Wunderground v.1.15,2013-03-28 09:02:00,
2013-03-28 02:08:00,48.2,46.8,29.98,South,191,0.0,9.0,95,0.00,,,0.00,Wunderground v.1.15,2013-03-28 09:08:00,
2013-03-28 02:13:00,48.1,47.0,29.98,South,191,0.0,9.0,96,0.00,,,0.00,Wunderground v.1.15,2013-03-28 09:13:00,
2013-03-28 02:19:00,48.0,46.9,29.98,South,191,0.0,9.0,96,0.00,,,0.00,Wunderground v.1.15,2013-03-28 09:19:00,
2013-03-28 02:24:00,48.0,46.9,29.98,South,191,0.0,9.0,96,0.00,,,0.00,Wunderground v.1.15,2013-03-28 09:24:00,
2013-03-28 02:30:00,48.1,47.0,29.98,South,191,0.0,9.0,96,0.00,,,0.00,Wunderground v.1.15,2013-03-28 09:30:00,
2013-03-28 02:35:00,48.1,47.0,29.98,South,191,0.0,9.0,96,0.00,,,0.00,Wunderground v.1.15,2013-03-28 09:35:00,
2013-03-28 02:40:00,48.1,47.0,29.98,South,191,0.0,9.0,96,0.00,,,0.00,Wunderground v.1.15,2013-03-28 09:40:00,
2013-03-28 02:46:00,48.1,47.0,29.98,South,191,0.0,9.0,96,0.00,,,0.00,Wunderground v.1.15,2013-03-28 09:46:00,
2013-03-28 02:52:00,48.1,47.0,29.98,South,191,0.0,9.0,96,0.00,,,0.00,Wunderground v.1.15,2013-03-28 09:52:00,
2013-03-28 02:58:00,48.1,47.0,29.98,South,191,0.0,9.0,96,0.00,,,0.00,Wunderground v.1.15,2013-03-28 09:58:00,
2013-03-28 03:03:00,48.2,47.1,29.98,South,191,0.0,9.0,96,0.00,,,0.00,Wunderground v.1.15,2013-03-28 10:03:00,
2013-03-28 03:08:00,48.3,47.2,29.98,South,191,0.0,9.0,96,0.00,,,0.00,Wunderground v.1.15,2013-03-28 10:08:00,
2013-03-28 03:14:00,48.3,47.2,29.98,South,191,0.0,9.0,96,0.00,,,0.00,Wunderground v.1.15,2013-03-28 10:14:00,
2013-03-28 03:19:00,48.3,47.2,29.98,South,191,0.0,9.0,96,0.00,,,0.00,Wunderground v.1.15,2013-03-28 10:19:00,
2013-03-28 03:25:00,48.3,47.2,29.98,South,191,1.0,9.0,96,0.00,,,0.00,Wunderground v.1.15,2013-03-28 10:25:00,
2013-03-28 03:30:00,48.4,47.3,29.98,South,191,1.0,1.0,96,0.00,,,0.00,Wunderground v.1.15,2013-03-28 10:30:00,
2013-03-28 03:37:00,48.4,47.3,29.98,South,191,1.0,9.0,96,0.00,,,0.00,Wunderground v.1.15,2013-03-28 10:37:00,
2013-03-28 03:42:00,48.4,47.3,29.98,South,191,0.0,9.0,96,0.00,,,0.00,Wunderground v.1.15,2013-03-28 10:42:00,
2013-03-28 03:48:00,48.4,47.3,29.98,South,191,1.0,9.0,96,0.00,,,0.00,Wunderground v.1.15,2013-03-28 10:48:00,
2013-03-28 03:53:00,48.3,47.2,29.98,South,191,0.0,9.0,96,0.00,,,0.00,Wunderground v.1.15,2013-03-28 10:53:00,
2013-03-28 03:58:00,48.3,47.2,29.98,South,191,0.0,9.0,96,0.00,,,0.00,Wunderground v.1.15,2013-03-28 10:58:00,
2013-03-28 04:03:00,48.2,47.1,29.98,South,191,1.0,9.0,96,0.00,,,0.00,Wunderground v.1.15,2013-03-28 11:03:00,
2013-03-28 04:09:00,48.1,47.0,29.98,South,191,1.0,9.0,96,0.00,,,0.00,Wunderground v.1.15,2013-03-28 11:09:00,
2013-03-28 04:15:00,47.9,46.8,29.98,South,191,1.0,9.0,96,0.00,,,0.00,Wunderground v.1.15,2013-03-28 11:15:00,
2013-03-28 04:20:00,47.8,46.7,29.98,South,191,1.0,9.0,96,0.00,,,0.00,Wunderground v.1.15,2013-03-28 11:20:00,
2013-03-28 04:27:00,47.8,46.7,29.98,South,191,1.0,9.0,96,0.00,,,0.00,Wunderground v.1.15,2013-03-28 11:27:00,
2013-03-28 04:33:00,47.7,46.6,29.98,South,191,0.0,9.0,96,0.00,,,0.00,Wunderground v.1.15,2013-03-28 11:33:00,
2013-03-28 04:38:00,47.7,46.6,29.98,South,191,0.0,9.0,96,0.00,,,0.00,Wunderground v.1.15,2013-03-28 11:38:00,
2013-03-28 04:44:00,47.7,46.6,29.98,South,191,0.0,9.0,96,0.00,,,0.00,Wunderground v.1.15,2013-03-28 11:44:00,
2013-03-28 04:49:00,47.7,46.6,29.98,South,191,0.0,9.0,96,0.00,,,0.00,Wunderground v.1.15,2013-03-28 11:49:00,
2013-03-28 04:54:00,47.6,46.5,29.98,South,191,1.0,9.0,96,0.00,,,0.00,Wunderground v.1.15,2013-03-28 11:54:00,
2013-03-28 05:00:00,47.6,46.5,29.98,South,191,1.0,9.0,96,0.00,,,0.00,Wunderground v.1.15,2013-03-28 12:00:00,
2013-03-28 05:05:00,47.5,46.4,29.98,South,191,1.0,9.0,96,0.00,,,0.00,Wunderground v.1.15,2013-03-28 12:05:00,
2013-03-28 05:11:00,47.4,46.3,29.98,South,191,1.0,9.0,96,0.00,,,0.00,Wunderground v.1.15,2013-03-28 12:11:00,
2013-03-28 05:17:00,47.4,46.3,29.98,South,191,1.0,9.0,96,0.00,,,0.00,Wunderground v.1.15,2013-03-28 12:17:00,
2013-03-28 05:23:00,47.4,46.3,29.98,South,191,0.0,9.0,96,0.00,,,0.00,Wunderground v.1.15,2013-03-28 12:23:00,
2013-03-28 05:29:00,47.4,46.3,29.99,South,191,0.0,9.0,96,0.00,,,0.00,Wunderground v.1.15,2013-03-28 12:29:00,
2013-03-28 05:34:00,47.4,46.3,29.98,South,191,0.0,9.0,96,0.00,,,0.00,Wunderground v.1.15,2013-03-28 12:34:00,
2013-03-28 05:39:00,47.3,46.2,29.99,South,191,0.0,9.0,96,0.00,,,0.00,Wunderground v.1.15,2013-03-28 12:39:00,
2013-03-28 05:45:00,47.4,46.3,29.99,South,191,0.0,9.0,96,0.00,,,0.00,Wunderground v.1.15,2013-03-28 12:45:00,
2013-03-28 05:51:00,47.4,46.3,29.99,South,191,0.0,9.0,96,0.00,,,0.00,Wunderground v.1.15,2013-03-28 12:51:00,
2013-03-28 05:57:00,47.5,46.4,29.98,South,191,0.0,9.0,96,0.00,,,0.00,Wunderground v.1.15,2013-03-28 12:57:00,
2013-03-28 06:03:00,47.5,46.7,29.99,South,191,0.0,9.0,97,0.00,,,0.00,Wunderground v.1.15,2013-03-28 13:03:00,
2013-03-28 06:08:00,47.6,46.8,29.99,South,191,0.0,9.0,97,0.00,,,0.00,Wunderground v.1.15,2013-03-28 13:08:00,
2013-03-28 06:14:00,47.6,46.8,29.99,South,191,0.0,9.0,97,0.00,,,0.00,Wunderground v.1.15,2013-03-28 13:14:00,
2013-03-28 06:20:00,47.6,46.5,29.99,South,191,0.0,9.0,96,0.00,,,0.00,Wunderground v.1.15,2013-03-28 13:20:00,
2013-03-28 06:25:00,47.5,46.4,29.99,South,191,0.0,9.0,96,0.00,,,0.00,Wunderground v.1.15,2013-03-28 13:25:00,
2013-03-28 06:31:00,47.5,46.4,29.99,South,191,0.0,9.0,96,0.00,,,0.00,Wunderground v.1.15,2013-03-28 13:31:00,
2013-03-28 06:36:00,47.5,46.4,29.99,South,191,0.0,9.0,96,0.00,,,0.00,Wunderground v.1.15,2013-03-28 13:36:00,
2013-03-28 06:42:00,47.4,46.3,29.99,South,191,0.0,9.0,96,0.00,,,0.00,Wunderground v.1.15,2013-03-28 13:42:00,
2013-03-28 06:48:00,47.4,46.3,29.99,South,191,0.0,9.0,96,0.00,,,0.00,Wunderground v.1.15,2013-03-28 13:48:00,
2013-03-28 06:53:00,47.4,46.3,29.99,South,191,0.0,9.0,96,0.00,,,0.00,Wunderground v.1.15,2013-03-28 13:53:00,
2013-03-28 06:59:00,47.4,46.3,29.99,South,191,0.0,9.0,96,0.00,,,0.00,Wunderground v.1.15,2013-03-28 13:59:00,
2013-03-28 07:04:00,47.4,46.3,29.99,South,191,0.0,9.0,96,0.00,,,0.00,Wunderground v.1.15,2013-03-28 14:04:00,
2013-03-28 07:09:00,47.4,46.3,30.00,South,191,0.0,9.0,96,0.00,,,0.00,Wunderground v.1.15,2013-03-28 14:09:00,
2013-03-28 07:15:00,47.4,46.6,29.99,South,191,0.0,9.0,97,0.00,,,0.00,Wunderground v.1.15,2013-03-28 14:15:00,
2013-03-28 07:20:00,47.5,46.4,30.00,South,191,0.0,9.0,96,0.00,,,0.00,Wunderground v.1.15,2013-03-28 14:20:00,
2013-03-28 07:25:00,47.4,46.3,30.00,South,191,0.0,9.0,96,0.00,,,0.00,Wunderground v.1.15,2013-03-28 14:25:00,
2013-03-28 07:31:00,47.4,46.6,30.00,South,191,0.0,9.0,97,0.00,,,0.00,Wunderground v.1.15,2013-03-28 14:31:00,
2013-03-28 07:36:00,47.4,46.6,30.00,South,191,0.0,9.0,97,0.00,,,0.00,Wunderground v.1.15,2013-03-28 14:36:00,
2013-03-28 07:42:00,47.4,46.6,30.00,South,191,0.0,9.0,97,0.00,,,0.00,Wunderground v.1.15,2013-03-28 14:42:00,
2013-03-28 07:48:00,47.4,46.6,30.00,South,191,1.0,9.0,97,0.00,,,0.00,Wunderground v.1.15,2013-03-28 14:48:00,
2013-03-28 07:53:00,47.4,46.6,30.00,South,191,1.0,9.0,97,0.00,,,0.00,Wunderground v.1.15,2013-03-28 14:53:00,
2013-03-28 07:59:00,47.5,46.7,30.00,South,191,0.0,9.0,97,0.00,,,0.00,Wunderground v.1.15,2013-03-28 14:59:00,
2013-03-28 08:04:00,47.6,46.8,30.00,South,191,0.0,9.0,97,0.00,,,0.00,Wunderground v.1.15,2013-03-28 15:04:00,
2013-03-28 08:10:00,47.7,46.9,30.01,South,191,0.0,9.0,97,0.00,,,0.00,Wunderground v.1.15,2013-03-28 15:10:00,
2013-03-28 08:15:00,47.6,46.8,30.01,South,191,1.0,9.0,97,0.00,,,0.00,Wunderground v.1.15,2013-03-28 15:15:00,
2013-03-28 08:21:00,47.7,46.9,30.01,South,191,0.0,9.0,97,0.00,,,0.00,Wunderground v.1.15,2013-03-28 15:21:00,
2013-03-28 08:27:00,47.7,46.9,30.01,South,191,0.0,9.0,97,0.00,,,0.00,Wunderground v.1.15,2013-03-28 15:27:00,
2013-03-28 08:33:00,47.8,47.0,30.01,South,191,0.0,9.0,97,0.00,,,0.00,Wunderground v.1.15,2013-03-28 15:33:00,
2013-03-28 08:38:00,48.0,47.2,30.02,South,191,0.0,9.0,97,0.00,,,0.00,Wunderground v.1.15,2013-03-28 15:38:00,
2013-03-28 08:44:00,48.1,47.3,30.01,South,191,0.0,9.0,97,0.00,,,0.00,Wunderground v.1.15,2013-03-28 15:44:00,
2013-03-28 08:49:00,48.1,47.3,30.02,South,191,0.0,9.0,97,0.00,,,0.00,Wunderground v.1.15,2013-03-28 15:49:00,
2013-03-28 08:54:00,48.3,47.5,30.01,South,191,0.0,9.0,97,0.00,,,0.00,Wunderground v.1.15,2013-03-28 15:54:00,
2013-03-28 08:59:00,48.3,47.5,30.02,South,191,0.0,9.0,97,0.00,,,0.00,Wunderground v.1.15,2013-03-28 15:59:00,
2013-03-28 09:05:00,48.4,47.6,30.02,South,191,0.0,9.0,97,0.00,,,0.00,Wunderground v.1.15,2013-03-28 16:05:00,
2013-03-28 09:10:00,48.5,47.7,30.02,South,191,0.0,9.0,97,0.00,,,0.00,Wunderground v.1.15,2013-03-28 16:10:00,
2013-03-28 09:16:00,48.4,47.6,30.02,South,191,0.0,9.0,97,0.00,,,0.00,Wunderground v.1.15,2013-03-28 16:16:00,
2013-03-28 09:22:00,48.4,47.6,30.02,South,191,0.0,9.0,97,0.00,,,0.00,Wunderground v.1.15,2013-03-28 16:22:00,
2013-03-28 09:28:00,48.5,47.7,30.02,South,191,0.0,9.0,97,0.00,,,0.00,Wunderground v.1.15,2013-03-28 16:28:00,
2013-03-28 09:33:00,48.6,47.8,30.03,South,191,0.0,9.0,97,0.00,,,0.00,Wunderground v.1.15,2013-03-28 16:33:00,
2013-03-28 09:39:00,48.6,47.8,30.03,South,191,0.0,9.0,97,0.00,,,0.00,Wunderground v.1.15,2013-03-28 16:39:00,
2013-03-28 09:45:00,48.6,47.8,30.03,South,191,1.0,9.0,97,0.00,,,0.01,Wunderground v.1.15,2013-03-28 16:45:00,
2013-03-28 09:51:00,48.8,48.0,30.03,South,191,1.0,9.0,97,0.00,,,0.01,Wunderground v.1.15,2013-03-28 16:51:00,
2013-03-28 09:57:00,48.6,47.8,30.03,South,191,1.0,9.0,97,0.00,,,0.01,Wunderground v.1.15,2013-03-28 16:57:00,
2013-03-28 10:03:00,48.6,47.8,30.03,South,191,1.0,9.0,97,0.00,,,0.01,Wunderground v.1.15,2013-03-28 17:03:00,
2013-03-28 10:08:00,48.5,47.7,30.03,South,191,1.0,9.0,97,0.00,,,0.01,Wunderground v.1.15,2013-03-28 17:08:00,
2013-03-28 10:13:00,48.6,47.8,30.04,South,191,2.0,9.0,97,0.00,,,0.01,Wunderground v.1.15,2013-03-28 17:13:00,
2013-03-28 10:18:00,48.7,47.9,30.04,South,191,2.0,9.0,97,0.00,,,0.01,Wunderground v.1.15,2013-03-28 17:18:00,
2013-03-28 10:23:00,48.6,47.8,30.04,South,191,2.0,9.0,97,0.00,,,0.01,Wunderground v.1.15,2013-03-28 17:23:00,
2013-03-28 10:29:00,48.7,47.9,30.03,South,191,1.0,9.0,97,0.00,,,0.01,Wunderground v.1.15,2013-03-28 17:29:00,
2013-03-28 10:34:00,48.9,48.1,30.04,South,191,0.0,9.0,97,0.00,,,0.01,Wunderground v.1.15,2013-03-28 17:34:00,
2013-03-28 10:39:00,48.9,48.1,30.04,South,191,1.0,9.0,97,0.00,,,0.01,Wunderground v.1.15,2013-03-28 17:39:00,
2013-03-28 10:45:00,49.0,48.2,30.04,South,191,2.0,9.0,97,0.00,,,0.01,Wunderground v.1.15,2013-03-28 17:45:00,
2013-03-28 10:50:00,49.1,48.3,30.04,South,191,2.0,2.0,97,0.00,,,0.01,Wunderground v.1.15,2013-03-28 17:50:00,
2013-03-28 10:56:00,49.3,48.5,30.04,South,191,2.0,9.0,97,0.00,,,0.01,Wunderground v.1.15,2013-03-28 17:56:00,
2013-03-28 11:02:00,49.3,48.5,30.05,South,191,2.0,9.0,97,0.00,,,0.01,Wunderground v.1.15,2013-03-28 18:02:00,
2013-03-28 11:08:00,49.1,48.3,30.05,South,191,2.0,9.0,97,0.00,,,0.01,Wunderground v.1.15,2013-03-28 18:08:00,
2013-03-28 11:13:00,49.1,48.3,30.05,South,191,2.0,9.0,97,0.00,,,0.01,Wunderground v.1.15,2013-03-28 18:13:00,
2013-03-28 11:18:00,49.1,48.3,30.05,South,191,2.0,9.0,97,0.00,,,0.01,Wunderground v.1.15,2013-03-28 18:18:00,
2013-03-28 11:24:00,49.1,48.3,30.05,South,191,2.0,9.0,97,0.00,,,0.01,Wunderground v.1.15,2013-03-28 18:24:00,
2013-03-28 11:30:00,49.0,48.2,30.05,South,191,2.0,9.0,97,0.00,,,0.01,Wunderground v.1.15,2013-03-28 18:30:00,
2013-03-28 11:36:00,48.8,48.0,30.05,South,191,2.0,9.0,97,0.00,,,0.01,Wunderground v.1.15,2013-03-28 18:36:00,
2013-03-28 11:41:00,49.0,48.2,30.05,South,191,2.0,9.0,97,0.00,,,0.01,Wunderground v.1.15,2013-03-28 18:41:00,
2013-03-28 11:47:00,48.9,48.1,30.05,South,191,2.0,9.0,97,0.00,,,0.01,Wunderground v.1.15,2013-03-28 18:47:00,
2013-03-28 11:53:00,49.0,48.2,30.05,South,191,2.0,9.0,97,0.00,,,0.01,Wunderground v.1.15,2013-03-28 18:53:00,
2013-03-28 11:58:00,49.0,48.2,30.06,South,191,1.0,9.0,97,0.00,,,0.01,Wunderground v.1.15,2013-03-28 18:58:00,
2013-03-28 12:03:00,49.1,48.3,30.06,South,191,2.0,9.0,97,0.00,,,0.01,Wunderground v.1.15,2013-03-28 19:03:00,
2013-03-28 12:08:00,49.4,48.6,30.06,South,191,3.0,9.0,97,0.00,,,0.01,Wunderground v.1.15,2013-03-28 19:08:00,
2013-03-28 12:13:00,49.6,48.8,30.06,South,191,3.0,9.0,97,0.00,,,0.01,Wunderground v.1.15,2013-03-28 19:13:00,
2013-03-28 12:19:00,49.0,48.2,30.06,South,191,3.0,9.0,97,0.00,,,0.01,Wunderground v.1.15,2013-03-28 19:19:00,
2013-03-28 12:25:00,49.3,48.5,30.06,South,191,4.0,9.0,97,0.00,,,0.01,Wunderground v.1.15,2013-03-28 19:25:00,
2013-03-28 12:31:00,49.2,48.4,30.06,South,191,4.0,9.0,97,0.00,,,0.01,Wunderground v.1.15,2013-03-28 19:31:00,
2013-03-28 12:37:00,49.4,48.6,30.07,South,191,4.0,9.0,97,0.00,,,0.01,Wunderground v.1.15,2013-03-28 19:37:00,
2013-03-28 12:43:00,49.5,48.7,30.06,South,191,4.0,9.0,97,0.00,,,0.01,Wunderground v.1.15,2013-03-28 19:43:00,
2013-03-28 12:48:00,49.9,49.1,30.07,South,191,4.0,9.0,97,0.00,,,0.01,Wunderground v.1.15,2013-03-28 19:48:00,
2013-03-28 12:54:00,49.8,48.7,30.07,South,191,4.0,9.0,96,0.00,,,0.01,Wunderground v.1.15,2013-03-28 19:54:00,
2013-03-28 13:00:00,49.7,48.6,30.07,SSW,193,4.0,4.0,96,0.00,,,0.01,Wunderground v.1.15,2013-03-28 20:00:00,
2013-03-28 13:07:00,49.9,49.1,30.07,SSW,213,4.0,9.0,97,0.00,,,0.01,Wunderground v.1.15,2013-03-28 20:07:00,
2013-03-28 13:12:00,49.9,48.8,30.07,SW,216,3.0,9.0,96,0.00,,,0.01,Wunderground v.1.15,2013-03-28 20:12:00,
2013-03-28 13:18:00,49.8,48.7,30.07,SW,216,3.0,9.0,96,0.00,,,0.01,Wunderground v.1.15,2013-03-28 20:18:00,
2013-03-28 13:23:00,49.8,48.7,30.07,SW,216,3.0,9.0,96,0.00,,,0.01,Wunderground v.1.15,2013-03-28 20:23:00,
2013-03-28 13:28:00,49.9,48.8,30.07,SW,232,3.0,9.0,96,0.00,,,0.01,Wunderground v.1.15,2013-03-28 20:28:00,
2013-03-28 13:34:00,49.8,48.7,30.07,SW,232,3.0,9.0,96,0.00,,,0.01,Wunderground v.1.15,2013-03-28 20:34:00,
2013-03-28 13:39:00,50.1,49.0,30.07,SW,232,3.0,9.0,96,0.00,,,0.01,Wunderground v.1.15,2013-03-28 20:39:00,
2013-03-28 13:45:00,50.4,49.0,30.08,SW,232,3.0,9.0,95,0.00,,,0.01,Wunderground v.1.15,2013-03-28 20:45:00,
2013-03-28 13:50:00,50.5,49.1,30.08,SW,232,3.0,9.0,95,0.00,,,0.01,Wunderground v.1.15,2013-03-28 20:50:00,
2013-03-28 13:55:00,50.2,48.5,30.08,SW,232,4.0,9.0,94,0.00,,,0.01,Wunderground v.1.15,2013-03-28 20:55:00,
2013-03-28 14:00:00,50.4,49.0,30.08,SW,222,4.0,6.0,95,0.00,,,0.01,Wunderground v.1.15,2013-03-28 21:00:00,
2013-03-28 14:06:00,50.4,49.0,30.08,SW,224,5.0,9.0,95,0.00,,,0.01,Wunderground v.1.15,2013-03-28 21:06:00,
2013-03-28 14:11:00,50.2,48.3,30.08,SW,233,5.0,9.0,93,0.00,,,0.01,Wunderground v.1.15,2013-03-28 21:11:00,
2013-03-28 14:16:00,50.7,49.0,30.07,SW,236,4.0,9.0,94,0.00,,,0.01,Wunderground v.1.15,2013-03-28 21:16:00,
2013-03-28 14:22:00,50.6,48.7,30.08,SW,225,4.0,9.0,93,0.00,,,0.01,Wunderground v.1.15,2013-03-28 21:22:00,
2013-03-28 14:27:00,51.1,49.4,30.07,SW,225,4.0,9.0,94,0.00,,,0.01,Wunderground v.1.15,2013-03-28 21:27:00,
2013-03-28 14:33:00,51.1,49.1,30.07,SW,232,4.0,9.0,93,0.00,,,0.01,Wunderground v.1.15,2013-03-28 21:33:00,
2013-03-28 14:39:00,51.1,49.1,30.07,SW,232,4.0,9.0,93,0.00,,,0.01,Wunderground v.1.15,2013-03-28 21:39:00,
2013-03-28 14:45:00,51.3,49.1,30.07,SW,232,3.0,9.0,92,0.00,,,0.01,Wunderground v.1.15,2013-03-28 21:45:00,
2013-03-28 14:51:00,51.4,49.2,30.07,SW,232,3.0,9.0,92,0.00,,,0.01,Wunderground v.1.15,2013-03-28 21:51:00,
2013-03-28 14:57:00,51.9,49.4,30.07,SW,232,3.0,9.0,91,0.00,,,0.01,Wunderground v.1.15,2013-03-28 21:57:00,
2013-03-28 15:03:00,52.1,49.3,30.07,SW,232,3.0,9.0,90,0.00,,,0.01,Wunderground v.1.15,2013-03-28 22:03:00,
2013-03-28 15:08:00,52.2,49.4,30.07,SW,232,3.0,9.0,90,0.00,,,0.01,Wunderground v.1.15,2013-03-28 22:08:00,
2013-03-28 15:14:00,52.1,49.0,30.06,SW,232,2.0,9.0,89,0.00,,,0.01,Wunderground v.1.15,2013-03-28 22:14:00,
2013-03-28 15:19:00,51.9,48.8,30.06,SW,232,3.0,9.0,89,0.00,,,0.01,Wunderground v.1.15,2013-03-28 22:19:00,
2013-03-28 15:25:00,52.0,48.9,30.06,SW,232,3.0,9.0,89,0.00,,,0.01,Wunderground v.1.15,2013-03-28 22:25:00,
2013-03-28 15:32:00,52.0,48.9,30.06,SW,232,3.0,9.0,89,0.00,,,0.01,Wunderground v.1.15,2013-03-28 22:32:00,
2013-03-28 15:37:00,51.9,48.8,30.06,SW,232,3.0,9.0,89,0.00,,,0.01,Wunderground v.1.15,2013-03-28 22:37:00,
2013-03-28 15:42:00,51.6,48.8,30.06,SW,232,3.0,9.0,90,0.00,,,0.01,Wunderground v.1.15,2013-03-28 22:42:00,
2013-03-28 15:48:00,51.4,48.6,30.06,SW,232,2.0,9.0,90,0.00,,,0.01,Wunderground v.1.15,2013-03-28 22:48:00,
2013-03-28 15:54:00,51.7,48.6,30.06,SW,232,2.0,9.0,89,0.00,,,0.01,Wunderground v.1.15,2013-03-28 22:54:00,
2013-03-28 16:00:00,51.7,48.6,30.06,SW,232,3.0,9.0,89,0.00,,,0.01,Wunderground v.1.15,2013-03-28 23:00:00,
2013-03-28 16:06:00,52.1,49.0,30.06,SW,232,3.0,9.0,89,0.00,,,0.01,Wunderground v.1.15,2013-03-28 23:06:00,
2013-03-28 16:12:00,52.2,49.1,30.07,SW,232,3.0,9.0,89,0.00,,,0.01,Wunderground v.1.15,2013-03-28 23:12:00,
2013-03-28 16:18:00,52.5,49.4,30.07,SW,232,4.0,9.0,89,0.00,,,0.01,Wunderground v.1.15,2013-03-28 23:18:00,
2013-03-28 16:24:00,52.2,49.1,30.07,SW,232,4.0,9.0,89,0.00,,,0.01,Wunderground v.1.15,2013-03-28 23:24:00,
2013-03-28 16:29:00,52.2,49.4,30.06,West,265,4.0,9.0,90,0.00,,,0.01,Wunderground v.1.15,2013-03-28 23:29:00,
2013-03-28 16:35:00,52.1,49.0,30.07,WNW,295,4.0,9.0,89,0.00,,,0.01,Wunderground v.1.15,2013-03-28 23:35:00,
2013-03-28 16:40:00,51.9,49.1,30.07,WNW,295,4.0,9.0,90,0.00,,,0.01,Wunderground v.1.15,2013-03-28 23:40:00,
2013-03-28 16:46:00,51.8,49.0,30.07,WNW,296,4.0,9.0,90,0.00,,,0.01,Wunderground v.1.15,2013-03-28 23:46:00,
2013-03-28 16:51:00,51.7,48.9,30.07,WNW,296,4.0,9.0,90,0.00,,,0.01,Wunderground v.1.15,2013-03-28 23:51:00,
2013-03-28 16:57:00,51.4,48.9,30.07,WNW,296,5.0,9.0,91,0.00,,,0.01,Wunderground v.1.15,2013-03-28 23:57:00,
2013-03-28 17:03:00,51.5,48.7,30.07,WNW,297,5.0,9.0,90,0.00,,,0.01,Wunderground v.1.15,2013-03-29 00:03:00,
2013-03-28 17:08:00,51.9,49.4,30.07,WNW,303,5.0,9.0,91,0.00,,,0.01,Wunderground v.1.15,2013-03-29 00:08:00,
2013-03-28 17:14:00,51.5,48.7,30.07,NW,304,5.0,9.0,90,0.00,,,0.01,Wunderground v.1.15,2013-03-29 00:14:00,
2013-03-28 17:20:00,51.2,48.7,30.07,NW,304,5.0,9.0,91,0.00,,,0.01,Wunderground v.1.15,2013-03-29 00:20:00,
2013-03-28 17:26:00,51.5,49.0,30.07,NW,304,5.0,9.0,91,0.00,,,0.01,Wunderground v.1.15,2013-03-29 00:26:00,
2013-03-28 17:31:00,51.7,49.2,30.07,NW,304,4.0,5.0,91,0.00,,,0.01,Wunderground v.1.15,2013-03-29 00:31:00,
2013-03-28 17:37:00,51.2,48.7,30.07,NW,304,4.0,9.0,91,0.00,,,0.01,Wunderground v.1.15,2013-03-29 00:37:00,
2013-03-28 17:42:00,50.6,48.1,30.07,NW,304,5.0,9.0,91,0.00,,,0.01,Wunderground v.1.15,2013-03-29 00:42:00,
2013-03-28 17:48:00,50.7,48.5,30.08,NW,304,5.0,9.0,92,0.00,,,0.01,Wunderground v.1.15,2013-03-29 00:48:00,
2013-03-28 17:54:00,50.6,48.4,30.08,NW,304,4.0,9.0,92,0.00,,,0.01,Wunderground v.1.15,2013-03-29 00:54:00,
2013-03-28 18:00:00,50.7,48.5,30.08,NW,304,4.0,4.0,92,0.00,,,0.01,Wunderground v.1.15,2013-03-29 01:00:00,
2013-03-28 18:06:00,51.0,48.8,30.08,NW,304,3.0,9.0,92,0.00,,,0.01,Wunderground v.1.15,2013-03-29 01:06:00,
2013-03-28 18:11:00,51.0,48.8,30.08,NW,304,3.0,9.0,92,0.00,,,0.01,Wunderground v.1.15,2013-03-29 01:11:00,
2013-03-28 18:17:00,51.2,49.0,30.08,NW,304,3.0,9.0,92,0.00,,,0.01,Wunderground v.1.15,2013-03-29 01:17:00,
2013-03-28 18:23:00,51.2,49.0,30.08,NW,304,3.0,9.0,92,0.00,,,0.01,Wunderground v.1.15,2013-03-29 01:23:00,
2013-03-28 18:28:00,50.9,48.7,30.08,NW,304,3.0,9.0,92,0.00,,,0.01,Wunderground v.1.15,2013-03-29 01:28:00,
2013-03-28 18:34:00,50.3,48.1,30.08,NW,304,3.0,9.0,92,0.00,,,0.01,Wunderground v.1.15,2013-03-29 01:34:00,
2013-03-28 18:39:00,50.1,47.9,30.08,NW,304,3.0,9.0,92,0.00,,,0.01,Wunderground v.1.15,2013-03-29 01:39:00,
2013-03-28 18:44:00,49.8,47.6,30.08,NW,304,3.0,9.0,92,0.00,,,0.01,Wunderground v.1.15,2013-03-29 01:44:00,
2013-03-28 18:50:00,49.5,47.6,30.08,NW,304,3.0,9.0,93,0.00,,,0.01,Wunderground v.1.15,2013-03-29 01:50:00,
2013-03-28 18:55:00,49.4,47.5,30.09,NW,304,3.0,9.0,93,0.00,,,0.01,Wunderground v.1.15,2013-03-29 01:55:00,
2013-03-28 19:02:00,49.3,47.4,30.08,NW,304,3.0,9.0,93,0.00,,,0.01,Wunderground v.1.15,2013-03-29 02:02:00,
2013-03-28 19:08:00,49.2,47.5,30.09,NW,304,3.0,9.0,94,0.00,,,0.01,Wunderground v.1.15,2013-03-29 02:08:00,
2013-03-28 19:13:00,49.1,47.4,30.09,NW,304,3.0,9.0,94,0.00,,,0.01,Wunderground v.1.15,2013-03-29 02:13:00,
2013-03-28 19:18:00,49.0,47.3,30.09,NW,304,4.0,9.0,94,0.00,,,0.01,Wunderground v.1.15,2013-03-29 02:18:00,
2013-03-28 19:23:00,49.0,47.3,30.09,NW,304,3.0,9.0,94,0.00,,,0.01,Wunderground v.1.15,2013-03-29 02:23:00,
2013-03-28 19:29:00,49.0,47.3,30.09,NW,304,3.0,9.0,94,0.00,,,0.01,Wunderground v.1.15,2013-03-29 02:29:00,
2013-03-28 19:35:00,49.0,47.3,30.09,NW,304,2.0,9.0,94,0.00,,,0.01,Wunderground v.1.15,2013-03-29 02:35:00,
2013-03-28 19:41:00,49.0,47.3,30.09,NW,304,1.0,9.0,94,0.00,,,0.01,Wunderground v.1.15,2013-03-29 02:41:00,
2013-03-28 19:46:00,49.0,47.3,30.09,NW,304,1.0,9.0,94,0.00,,,0.01,Wunderground v.1.15,2013-03-29 02:46:00,
2013-03-28 19:51:00,48.9,47.2,30.09,NW,304,1.0,9.0,94,0.00,,,0.01,Wunderground v.1.15,2013-03-29 02:51:00,
2013-03-28 19:57:00,49.0,47.3,30.09,NW,304,1.0,9.0,94,0.00,,,0.01,Wunderground v.1.15,2013-03-29 02:57:00,
2013-03-28 20:02:00,49.0,47.3,30.09,NW,304,1.0,9.0,94,0.00,,,0.01,Wunderground v.1.15,2013-03-29 03:02:00,
2013-03-28 20:08:00,48.9,47.2,30.09,NW,304,1.0,9.0,94,0.00,,,0.01,Wunderground v.1.15,2013-03-29 03:08:00,
2013-03-28 20:14:00,48.9,47.2,30.09,NW,304,1.0,9.0,94,0.00,,,0.01,Wunderground v.1.15,2013-03-29 03:14:00,
2013-03-28 20:19:00,48.9,47.2,30.10,NW,304,0.0,9.0,94,0.00,,,0.01,Wunderground v.1.15,2013-03-29 03:19:00,
2013-03-28 20:24:00,48.8,47.2,30.10,NW,304,1.0,9.0,94,0.00,,,0.01,Wunderground v.1.15,2013-03-29 03:24:00,
2013-03-28 20:30:00,48.8,47.2,30.10,NW,304,1.0,1.0,94,0.00,,,0.01,Wunderground v.1.15,2013-03-29 03:30:00,
2013-03-28 20:35:00,48.8,47.2,30.10,NW,304,0.0,9.0,94,0.00,,,0.01,Wunderground v.1.15,2013-03-29 03:35:00,
2013-03-28 20:40:00,48.8,47.2,30.10,NW,304,0.0,9.0,94,0.00,,,0.01,Wunderground v.1.15,2013-03-29 03:40:00,
2013-03-28 20:47:00,48.8,47.2,30.11,NW,304,0.0,9.0,94,0.00,,,0.01,Wunderground v.1.15,2013-03-29 03:47:00,
2013-03-28 20:52:00,48.8,47.2,30.11,NW,304,0.0,9.0,94,0.00,,,0.01,Wunderground v.1.15,2013-03-29 03:52:00,
2013-03-28 20:58:00,48.7,47.1,30.11,NW,304,0.0,9.0,94,0.00,,,0.01,Wunderground v.1.15,2013-03-29 03:58:00,
2013-03-28 21:01:00,48.7,47.1,30.11,NW,304,0.0,9.0,94,0.00,,,0.01,Wunderground v.1.15,2013-03-29 04:01:00,
2013-03-28 21:03:00,48.7,47.1,30.11,NW,304,0.0,9.0,94,0.00,,,0.01,Wunderground v.1.15,2013-03-29 04:03:00,
2013-03-28 21:08:00,48.8,47.2,30.11,NW,304,0.0,9.0,94,0.00,,,0.01,Wunderground v.1.15,2013-03-29 04:08:00,
2013-03-28 21:13:00,48.8,47.2,30.11,NW,304,0.0,9.0,94,0.00,,,0.01,Wunderground v.1.15,2013-03-29 04:13:00,
2013-03-28 21:19:00,48.8,47.2,30.11,NW,304,1.0,9.0,94,0.00,,,0.01,Wunderground v.1.15,2013-03-29 04:19:00,
2013-03-28 21:25:00,48.8,47.2,30.11,NW,304,1.0,9.0,94,0.00,,,0.01,Wunderground v.1.15,2013-03-29 04:25:00,
2013-03-28 21:31:00,48.8,47.2,30.12,NW,304,1.0,9.0,94,0.00,,,0.01,Wunderground v.1.15,2013-03-29 04:31:00,
2013-03-28 21:36:00,48.8,47.2,30.12,NW,304,2.0,9.0,94,0.00,,,0.01,Wunderground v.1.15,2013-03-29 04:36:00,
2013-03-28 21:42:00,48.8,47.2,30.12,NW,304,1.0,9.0,94,0.00,,,0.01,Wunderground v.1.15,2013-03-29 04:42:00,
2013-03-28 21:48:00,48.8,47.4,30.12,NW,304,1.0,9.0,95,0.00,,,0.01,Wunderground v.1.15,2013-03-29 04:48:00,
2013-03-28 21:53:00,48.8,47.4,30.12,NW,304,1.0,9.0,95,0.00,,,0.01,Wunderground v.1.15,2013-03-29 04:53:00,
2013-03-28 21:58:00,48.7,47.3,30.12,NW,304,2.0,9.0,95,0.00,,,0.01,Wunderground v.1.15,2013-03-29 04:58:00,
2013-03-28 22:04:00,48.8,47.4,30.11,NNW,336,3.0,9.0,95,0.00,,,0.01,Wunderground v.1.15,2013-03-29 05:04:00,
2013-03-28 22:10:00,48.7,47.3,30.12,NNW,345,3.0,3.0,95,0.00,,,0.01,Wunderground v.1.15,2013-03-29 05:10:00,
2013-03-28 22:15:00,48.7,47.3,30.12,NNW,345,3.0,9.0,95,0.00,,,0.01,Wunderground v.1.15,2013-03-29 05:15:00,
2013-03-28 22:21:00,48.7,47.3,30.12,NNW,345,2.0,9.0,95,0.00,,,0.01,Wunderground v.1.15,2013-03-29 05:21:00,
2013-03-28 22:26:00,48.6,47.2,30.11,NNW,345,2.0,9.0,95,0.00,,,0.01,Wunderground v.1.15,2013-03-29 05:26:00,
2013-03-28 22:31:00,48.5,47.1,30.12,NNW,345,2.0,9.0,95,0.00,,,0.01,Wunderground v.1.15,2013-03-29 05:31:00,
2013-03-28 22:36:00,48.4,47.0,30.12,NNW,345,2.0,9.0,95,0.00,,,0.01,Wunderground v.1.15,2013-03-29 05:36:00,
2013-03-28 22:42:00,48.5,47.1,30.11,NNW,345,2.0,9.0,95,0.00,,,0.01,Wunderground v.1.15,2013-03-29 05:42:00,
2013-03-28 22:48:00,48.5,47.1,30.12,NNW,345,1.0,9.0,95,0.00,,,0.01,Wunderground v.1.15,2013-03-29 05:48:00,
2013-03-28 22:53:00,48.5,47.1,30.11,NNW,345,1.0,9.0,95,0.00,,,0.01,Wunderground v.1.15,2013-03-29 05:53:00,
2013-03-28 22:58:00,48.5,47.1,30.12,NNW,345,0.0,9.0,95,0.00,,,0.01,Wunderground v.1.15,2013-03-29 05:58:00,
2013-03-28 23:03:00,48.5,47.1,30.12,NNW,345,0.0,9.0,95,0.00,,,0.01,Wunderground v.1.15,2013-03-29 06:03:00,
2013-03-28 23:08:00,48.5,47.1,30.12,NNW,345,0.0,9.0,95,0.00,,,0.01,Wunderground v.1.15,2013-03-29 06:08:00,
2013-03-28 23:13:00,48.5,47.1,30.12,NNW,345,0.0,9.0,95,0.00,,,0.01,Wunderground v.1.15,2013-03-29 06:13:00,
2013-03-28 23:18:00,48.5,47.1,30.12,NNW,345,0.0,9.0,95,0.00,,,0.01,Wunderground v.1.15,2013-03-29 06:18:00,
2013-03-28 23:23:00,48.5,47.1,30.12,NNW,345,0.0,9.0,95,0.00,,,0.01,Wunderground v.1.15,2013-03-29 06:23:00,
2013-03-28 23:29:00,48.4,47.0,30.12,NNW,345,1.0,9.0,95,0.00,,,0.01,Wunderground v.1.15,2013-03-29 06:29:00,
2013-03-28 23:34:00,48.5,47.1,30.12,NNW,345,2.0,9.0,95,0.00,,,0.01,Wunderground v.1.15,2013-03-29 06:34:00,
2013-03-28 23:40:00,48.4,47.0,30.12,NNW,345,2.0,9.0,95,0.00,,,0.01,Wunderground v.1.15,2013-03-29 06:40:00,
2013-03-28 23:45:00,48.3,46.9,30.12,NNW,345,2.0,9.0,95,0.00,,,0.01,Wunderground v.1.15,2013-03-29 06:45:00,
2013-03-28 23:51:00,48.3,46.9,30.12,NNW,345,2.0,9.0,95,0.00,,,0.01,Wunderground v.1.15,2013-03-29 06:51:00,
2013-03-28 23:56:00,48.3,46.9,30.12,NNW,345,2.0,9.0,95,0.00,,,0.01,Wunderground v.1.15,2013-03-29 06:56:00,